createdAt,value
2023-01-27T00:01:31.295Z,4.30
2023-01-27T00:04:02.265Z,8.18
2023-01-27T00:09:09.495Z,5.03
2023-01-27T00:11:55.248Z,5.72
2023-01-27T00:14:26.790Z,6.05
2023-01-27T00:16:57.677Z,6.43
2023-01-27T00:19:28.502Z,3.80
2023-01-27T00:22:11.562Z,7.68
2023-01-27T00:24:43.741Z,5.78
2023-01-27T00:27:17.165Z,6.07
2023-01-27T00:29:47.947Z,6.53
2023-01-27T00:32:31.130Z,8.13
2023-01-27T00:35:01.942Z,6.72
2023-01-27T00:37:32.982Z,7.95
2023-01-27T00:40:03.783Z,6.05
2023-01-27T00:42:39.414Z,5.75
2023-01-27T00:45:23.642Z,7.32
2023-01-27T00:47:55.208Z,9.32
2023-01-27T00:50:26.120Z,5.93
2023-01-27T00:52:59.310Z,7.38
2023-01-27T00:55:30.804Z,3.55
2023-01-27T00:58:04.551Z,8.20
2023-01-27T01:00:35.501Z,4.75
2023-01-27T01:03:06.610Z,8.57
2023-01-27T01:05:37.522Z,8.60
2023-01-27T01:08:08.402Z,4.43
2023-01-27T01:10:41.485Z,5.57
2023-01-27T01:13:15.250Z,3.47
2023-01-27T01:15:46.257Z,5.97
2023-01-27T01:18:18.020Z,4.55
2023-01-27T01:20:50.170Z,5.07
2023-01-27T01:23:20.976Z,7.47
2023-01-27T01:25:57.591Z,6.18
2023-01-27T01:28:30.945Z,6.43
2023-01-27T01:31:07.816Z,6.80
2023-01-27T01:33:39.555Z,6.47
2023-01-27T01:36:12.458Z,7.45
2023-01-27T01:38:43.608Z,6.25
2023-01-27T01:41:17.272Z,7.63
2023-01-27T01:43:51.311Z,8.10
2023-01-27T01:46:23.101Z,4.82
2023-01-27T01:48:56.572Z,6.75
2023-01-27T01:51:31.917Z,5.78
2023-01-27T01:54:06.469Z,6.78
2023-01-27T01:56:41.836Z,5.18
2023-01-27T01:59:20.410Z,7.72
2023-01-27T02:01:51.964Z,8.20
2023-01-27T02:04:26.916Z,6.75
2023-01-27T02:07:06.534Z,6.25
2023-01-27T02:09:37.776Z,6.05
2023-01-27T02:12:09.380Z,5.38
2023-01-27T02:14:45.260Z,3.67
2023-01-27T02:17:17.192Z,4.55
2023-01-27T02:19:59.900Z,6.30
2023-01-27T02:22:39.520Z,8.35
2023-01-27T02:25:21.105Z,6.63
2023-01-27T02:27:54.618Z,6.43
2023-01-27T02:30:25.566Z,4.05
2023-01-27T02:32:56.408Z,4.97
2023-01-27T02:35:36.317Z,3.92
2023-01-27T02:38:09.354Z,3.00
2023-01-27T02:40:40.964Z,2.60
2023-01-27T02:43:14.384Z,4.20
2023-01-27T02:45:45.788Z,7.07
2023-01-27T02:48:16.966Z,3.22
2023-01-27T02:50:48.754Z,4.25
2023-01-27T02:53:19.826Z,4.47
2023-01-27T02:55:50.761Z,4.55
2023-01-27T02:58:24.225Z,4.32
2023-01-27T03:00:58.589Z,5.13
2023-01-27T03:03:29.462Z,3.35
2023-01-27T03:06:00.300Z,5.03
2023-01-27T03:08:31.833Z,2.63
2023-01-27T03:11:02.664Z,4.80
2023-01-27T03:13:42.532Z,3.85
2023-01-27T03:16:27.554Z,5.03
2023-01-27T03:18:58.568Z,3.90
2023-01-27T03:21:29.397Z,5.60
2023-01-27T03:24:00.486Z,1.38
2023-01-27T03:26:31.721Z,4.13
2023-01-27T03:29:27.117Z,4.78
2023-01-27T03:31:58.101Z,7.32
2023-01-27T03:34:29.082Z,3.20
2023-01-27T03:37:20.058Z,4.78
2023-01-27T03:40:03.229Z,5.45
2023-01-27T03:42:47.498Z,4.68
2023-01-27T03:45:33.277Z,8.27
2023-01-27T03:48:04.085Z,8.93
2023-01-27T03:50:43.465Z,7.38
2023-01-27T03:53:14.717Z,7.95
2023-01-27T03:55:47.037Z,6.28
2023-01-27T03:58:26.990Z,7.43
2023-01-27T04:01:02.626Z,9.23
2023-01-27T04:03:48.389Z,10.95
2023-01-27T04:06:33.889Z,6.53
2023-01-27T04:09:05.330Z,6.55
2023-01-27T04:11:48.678Z,9.20
2023-01-27T04:14:20.090Z,8.60
2023-01-27T04:16:54.550Z,8.35
2023-01-27T04:19:26.125Z,4.90
2023-01-27T04:21:57.718Z,8.30
2023-01-27T04:24:28.773Z,7.43
2023-01-27T04:27:00.871Z,6.75
2023-01-27T04:29:35.005Z,12.07
2023-01-27T04:32:10.316Z,5.90
2023-01-27T04:34:42.059Z,6.03
2023-01-27T04:37:13.550Z,9.93
2023-01-27T04:39:48.229Z,6.65
2023-01-27T04:42:19.038Z,9.32
2023-01-27T04:44:49.932Z,5.50
2023-01-27T04:47:23.378Z,8.77
2023-01-27T04:49:54.197Z,6.85
2023-01-27T04:52:25.152Z,4.70
2023-01-27T04:54:56.009Z,10.90
2023-01-27T04:57:28.209Z,15.95
2023-01-27T04:59:59.137Z,9.55
2023-01-27T05:02:32.629Z,6.22
2023-01-27T05:05:04.934Z,7.18
2023-01-27T05:07:36.099Z,8.82
2023-01-27T05:10:07.448Z,5.97
2023-01-27T05:12:38.373Z,5.75
2023-01-27T05:15:11.212Z,9.02
2023-01-27T05:17:44.810Z,9.05
2023-01-27T05:20:16.141Z,7.30
2023-01-27T05:22:47.003Z,6.47
2023-01-27T05:25:17.959Z,5.90
2023-01-27T05:27:48.985Z,6.03
2023-01-27T05:30:20.144Z,5.82
2023-01-27T05:32:53.540Z,9.02
2023-01-27T05:35:24.330Z,10.55
2023-01-27T05:37:55.192Z,5.57
2023-01-27T05:40:26.137Z,10.20
2023-01-27T05:42:57.261Z,5.15
2023-01-27T05:45:28.055Z,5.88
2023-01-27T05:48:01.445Z,7.25
2023-01-27T05:50:32.261Z,5.30
2023-01-27T05:53:03.027Z,5.57
2023-01-27T05:55:33.985Z,7.10
2023-01-27T05:58:04.811Z,9.10
2023-01-27T06:00:35.867Z,4.38
2023-01-27T06:03:09.467Z,5.30
2023-01-27T06:05:40.463Z,7.60
2023-01-27T06:08:12.339Z,5.40
2023-01-27T06:10:43.669Z,5.90
2023-01-27T06:13:15.968Z,7.97
2023-01-27T06:15:49.015Z,5.53
2023-01-27T06:18:24.216Z,3.88
2023-01-27T06:20:55.333Z,4.07
2023-01-27T06:23:27.985Z,8.52
2023-01-27T06:26:00.043Z,8.05
2023-01-27T06:28:30.967Z,7.18
2023-01-27T06:31:09.281Z,3.22
2023-01-27T06:33:43.835Z,4.35
2023-01-27T06:36:16.631Z,4.43
2023-01-27T06:38:48.064Z,7.95
2023-01-27T06:41:21.057Z,6.50
2023-01-27T06:43:53.159Z,6.53
2023-01-27T06:46:26.767Z,3.67
2023-01-27T06:49:00.334Z,7.00
2023-01-27T06:51:31.114Z,7.95
2023-01-27T06:54:01.870Z,5.60
2023-01-27T06:56:32.827Z,5.10
2023-01-27T06:59:03.824Z,5.63
2023-01-27T07:01:35.419Z,7.35
2023-01-27T07:04:09.399Z,6.57
2023-01-27T07:06:40.316Z,6.82
2023-01-27T07:09:11.567Z,5.65
2023-01-27T07:11:42.741Z,6.75
2023-01-27T07:14:13.673Z,9.52
2023-01-27T07:16:44.541Z,6.32
2023-01-27T07:19:18.150Z,3.42
2023-01-27T07:21:49.054Z,6.88
2023-01-27T07:24:19.993Z,6.50
2023-01-27T07:26:50.905Z,4.05
2023-01-27T07:29:21.730Z,5.72
2023-01-27T07:31:52.638Z,7.90
2023-01-27T07:34:26.250Z,6.00
2023-01-27T07:36:57.648Z,5.00
2023-01-27T07:39:28.752Z,4.30
2023-01-27T07:42:01.841Z,9.90
2023-01-27T07:44:33.378Z,8.25
2023-01-27T07:47:04.511Z,5.63
2023-01-27T07:49:38.739Z,9.43
2023-01-27T07:52:09.744Z,5.25
2023-01-27T07:54:40.704Z,4.65
2023-01-27T07:57:11.584Z,10.40
2023-01-27T07:59:42.665Z,4.63
2023-01-27T08:02:14.591Z,2.95
2023-01-27T08:04:53.570Z,3.28
2023-01-27T08:07:24.825Z,5.53
2023-01-27T08:09:57.537Z,3.65
2023-01-27T08:12:28.495Z,3.53
2023-01-27T08:14:59.296Z,4.82
2023-01-27T08:17:30.113Z,5.13
2023-01-27T08:20:03.601Z,5.07
2023-01-27T08:22:34.740Z,4.90
2023-01-27T08:25:05.700Z,6.25
2023-01-27T08:27:36.432Z,6.57
2023-01-27T08:30:21.434Z,5.88
2023-01-27T08:32:52.732Z,6.60
2023-01-27T08:35:26.343Z,4.22
2023-01-27T08:38:02.528Z,5.70
2023-01-27T08:40:40.262Z,3.58
2023-01-27T08:43:16.876Z,10.50
2023-01-27T08:45:48.214Z,3.75
2023-01-27T08:48:19.233Z,8.50
2023-01-27T08:50:53.110Z,2.85
2023-01-27T08:53:24.063Z,6.55
2023-01-27T08:55:57.368Z,3.08
2023-01-27T08:58:29.934Z,5.80
2023-01-27T09:01:05.173Z,5.82
2023-01-27T09:03:38.055Z,5.97
2023-01-27T09:06:14.671Z,7.82
2023-01-27T09:09:07.529Z,2.08
2023-01-27T09:11:41.246Z,5.20
2023-01-27T09:14:12.623Z,3.78
2023-01-27T09:16:43.593Z,7.90
2023-01-27T09:19:14.666Z,4.53
2023-01-27T09:21:48.147Z,5.40
2023-01-27T09:24:19.693Z,5.60
2023-01-27T09:26:50.804Z,4.05
2023-01-27T09:29:21.648Z,2.90
2023-01-27T09:31:52.546Z,3.88
2023-01-27T09:34:23.539Z,7.63
2023-01-27T09:37:00.702Z,5.32
2023-01-27T09:39:32.658Z,6.22
2023-01-27T09:42:25.751Z,4.88
2023-01-27T09:45:18.557Z,2.65
2023-01-27T09:48:07.817Z,3.75
2023-01-27T09:50:47.331Z,3.80
2023-01-27T09:53:50.841Z,4.78
2023-01-27T09:56:35.355Z,5.63
2023-01-27T09:59:30.216Z,3.47
2023-01-27T10:02:13.842Z,4.18
2023-01-27T10:05:15.648Z,2.47
2023-01-27T10:08:08.388Z,3.80
2023-01-27T10:11:05.341Z,6.13
2023-01-27T10:13:44.899Z,3.77
2023-01-27T10:16:29.827Z,7.45
2023-01-27T10:19:12.932Z,4.82
2023-01-27T10:21:53.907Z,3.33
2023-01-27T10:24:38.064Z,6.03
2023-01-27T10:27:19.511Z,5.40
2023-01-27T10:29:59.499Z,3.67
2023-01-27T10:32:33.623Z,4.05
2023-01-27T10:35:16.829Z,6.25
2023-01-27T10:38:11.125Z,3.15
2023-01-27T10:40:49.189Z,3.83
2023-01-27T10:43:29.383Z,5.05
2023-01-27T10:46:07.926Z,5.20
2023-01-27T10:48:44.795Z,5.35
2023-01-27T10:51:20.800Z,6.18
2023-01-27T10:54:00.357Z,8.70
2023-01-27T10:56:37.354Z,4.43
2023-01-27T11:01:50.144Z,5.68
2023-01-27T11:04:37.763Z,6.03
2023-01-27T11:07:09.593Z,6.35
2023-01-27T11:09:46.136Z,4.18
2023-01-27T11:12:19.386Z,4.55
2023-01-27T11:14:55.276Z,3.30
2023-01-27T11:17:32.413Z,3.33
2023-01-27T11:20:13.371Z,5.38
2023-01-27T11:22:54.182Z,10.25
2023-01-27T11:25:30.683Z,10.20
2023-01-27T11:28:16.275Z,4.00
2023-01-27T11:30:58.256Z,5.57
2023-01-27T11:33:34.713Z,5.95
2023-01-27T11:36:06.082Z,4.37
2023-01-27T11:38:36.903Z,4.30
2023-01-27T11:41:08.107Z,3.58
2023-01-27T11:43:40.430Z,5.20
2023-01-27T11:46:18.672Z,6.50
2023-01-27T11:48:53.836Z,5.50
2023-01-27T11:51:29.431Z,4.40
2023-01-27T11:54:08.193Z,5.43
2023-01-27T11:56:40.959Z,2.78
2023-01-27T11:59:16.935Z,3.45
2023-01-27T12:01:54.140Z,4.30
2023-01-27T12:04:32.153Z,4.82
2023-01-27T12:07:07.575Z,8.23
2023-01-27T12:09:40.199Z,5.90
2023-01-27T12:12:23.364Z,6.00
2023-01-27T12:14:56.529Z,3.35
2023-01-27T12:17:34.453Z,6.60
2023-01-27T12:20:10.667Z,4.38
2023-01-27T12:22:43.605Z,7.05
2023-01-27T12:25:23.094Z,3.38
2023-01-27T12:27:57.889Z,3.28
2023-01-27T12:30:31.792Z,4.68
2023-01-27T12:33:15.184Z,3.42
2023-01-27T12:35:52.680Z,5.70
2023-01-27T12:38:27.134Z,2.60
2023-01-27T12:41:03.087Z,3.70
2023-01-27T12:43:34.143Z,4.45
2023-01-27T12:46:18.570Z,3.67
2023-01-27T12:48:54.533Z,3.13
2023-01-27T12:51:27.594Z,3.85
2023-01-27T12:54:19.863Z,3.42
2023-01-27T12:56:50.951Z,3.60
2023-01-27T12:59:24.359Z,4.07
2023-01-27T13:02:06.638Z,5.22
2023-01-27T13:04:40.121Z,4.32
2023-01-27T13:07:15.948Z,2.85
2023-01-27T13:09:54.111Z,4.38
2023-01-27T13:12:30.774Z,2.97
2023-01-27T13:15:08.774Z,3.13
2023-01-27T13:17:41.478Z,3.13
2023-01-27T13:20:22.940Z,5.10
2023-01-27T13:22:59.610Z,3.60
2023-01-27T13:25:39.653Z,4.72
2023-01-27T13:28:11.858Z,7.03
2023-01-27T13:30:47.162Z,4.72
2023-01-27T13:33:30.086Z,4.35
2023-01-27T13:36:09.376Z,3.70
2023-01-27T13:38:47.897Z,5.95
2023-01-27T13:41:25.367Z,5.70
2023-01-27T13:44:05.025Z,3.67
2023-01-27T13:46:40.873Z,3.33
2023-01-27T13:49:24.239Z,3.03
2023-01-27T13:51:57.876Z,5.18
2023-01-27T13:54:30.319Z,3.22
2023-01-27T13:57:15.055Z,3.78
2023-01-27T14:00:00.823Z,4.47
2023-01-27T14:02:50.070Z,6.75
2023-01-27T14:05:39.940Z,3.80
2023-01-27T14:08:24.178Z,3.92
2023-01-27T14:11:07.951Z,3.35
2023-01-27T14:13:55.163Z,6.50
2023-01-27T14:16:37.249Z,5.78
2023-01-27T14:19:21.392Z,4.57
2023-01-27T14:21:59.847Z,3.13
2023-01-27T14:24:42.671Z,3.70
2023-01-27T14:27:17.609Z,6.05
2023-01-27T14:29:55.769Z,6.28
2023-01-27T14:32:33.826Z,6.38
2023-01-27T14:35:21.556Z,6.68
2023-01-27T14:38:04.644Z,9.90
2023-01-27T14:40:43.356Z,6.97
2023-01-27T14:43:23.057Z,3.83
2023-01-27T14:46:03.013Z,5.13
2023-01-27T14:48:45.946Z,7.53
2023-01-27T14:51:27.330Z,7.05
2023-01-27T14:54:22.561Z,4.97
2023-01-27T14:57:10.360Z,7.70
2023-01-27T14:59:47.898Z,5.05
2023-01-27T15:02:34.411Z,9.20
2023-01-27T15:05:13.742Z,7.15
2023-01-27T15:07:56.010Z,7.43
2023-01-27T15:10:28.610Z,5.80
2023-01-27T15:13:41.473Z,5.47
2023-01-27T15:16:23.797Z,11.13
2023-01-27T15:19:35.360Z,10.80
2023-01-27T15:22:33.846Z,6.72
2023-01-27T15:25:34.270Z,8.52
2023-01-27T15:28:08.550Z,6.05
2023-01-27T15:30:43.486Z,5.25
2023-01-27T15:33:47.310Z,11.60
2023-01-27T15:36:37.541Z,11.77
2023-01-27T15:39:35.639Z,8.50
2023-01-27T15:42:15.482Z,11.02
2023-01-27T15:45:02.873Z,11.73
2023-01-27T15:47:39.470Z,10.23
2023-01-27T15:50:17.839Z,12.55
2023-01-27T15:52:51.028Z,10.55
2023-01-27T15:55:30.456Z,10.80
2023-01-27T15:58:21.484Z,11.70
2023-01-27T16:00:58.660Z,8.10
2023-01-27T16:03:38.125Z,8.70
2023-01-27T16:06:18.390Z,15.13
2023-01-27T16:08:53.882Z,10.30
2023-01-27T16:11:46.094Z,10.55
2023-01-27T16:14:49.156Z,13.00
2023-01-27T16:17:29.232Z,14.02
2023-01-27T16:20:16.987Z,8.18
2023-01-27T16:22:51.499Z,9.82
2023-01-27T16:25:29.937Z,7.10
2023-01-27T16:31:06.206Z,5.80
2023-01-27T16:33:43.454Z,10.25
2023-01-27T16:36:24.002Z,11.70
2023-01-27T16:38:56.146Z,8.68
2023-01-27T16:41:33.007Z,13.40
2023-01-27T16:44:06.561Z,10.57
2023-01-27T16:46:45.207Z,8.10
2023-01-27T16:49:21.736Z,12.65
2023-01-27T16:52:01.239Z,10.55
2023-01-27T16:54:37.613Z,11.73
2023-01-27T16:57:09.673Z,9.45
2023-01-27T16:59:43.644Z,10.45
2023-01-27T17:02:22.924Z,12.40
2023-01-27T17:04:55.895Z,14.52
2023-01-27T17:07:32.200Z,14.27
2023-01-27T17:10:09.274Z,10.45
2023-01-27T17:12:46.066Z,10.90
2023-01-27T17:15:23.127Z,13.40
2023-01-27T17:17:54.908Z,14.68
2023-01-27T17:20:32.320Z,8.45
2023-01-27T17:23:06.223Z,12.88
2023-01-27T17:25:40.750Z,10.02
2023-01-27T17:28:20.756Z,11.43
2023-01-27T17:30:52.039Z,10.95
2023-01-27T17:33:24.638Z,11.18
2023-01-27T17:35:57.949Z,12.27
2023-01-27T17:38:44.710Z,10.35
2023-01-27T17:41:37.958Z,12.00
2023-01-27T17:44:16.428Z,9.45
2023-01-27T17:46:47.403Z,8.02
2023-01-27T17:49:20.434Z,8.18
2023-01-27T17:51:54.678Z,6.18
2023-01-27T17:54:31.317Z,7.60
2023-01-27T17:57:07.922Z,9.75
2023-01-27T17:59:41.920Z,7.18
2023-01-27T18:02:21.784Z,9.57
2023-01-27T18:04:53.378Z,10.98
2023-01-27T18:07:25.122Z,12.45
2023-01-27T18:09:59.468Z,9.68
2023-01-27T18:12:35.968Z,10.15
2023-01-27T18:15:36.441Z,11.18
2023-01-27T18:18:09.833Z,9.55
2023-01-27T18:20:40.961Z,15.40
2023-01-27T18:23:19.494Z,9.95
2023-01-27T18:26:03.895Z,8.57
2023-01-27T18:28:39.168Z,6.57
2023-01-27T18:31:18.064Z,9.70
2023-01-27T18:33:49.297Z,13.63
2023-01-27T18:36:25.766Z,8.55
2023-01-27T18:38:57.321Z,9.80
2023-01-27T18:41:33.096Z,12.65
2023-01-27T18:44:04.036Z,11.20
2023-01-27T18:46:34.952Z,10.98
2023-01-27T18:49:11.990Z,10.18
2023-01-27T18:51:42.907Z,9.93
2023-01-27T18:54:15.316Z,9.90
2023-01-27T18:56:48.741Z,10.05
2023-01-27T18:59:19.449Z,6.55
2023-01-27T19:01:50.390Z,9.02
2023-01-27T19:04:21.269Z,9.77
2023-01-27T19:06:52.519Z,8.20
2023-01-27T19:09:23.570Z,11.35
2023-01-27T19:11:57.841Z,11.57
2023-01-27T19:14:28.714Z,11.52
2023-01-27T19:16:59.554Z,12.65
2023-01-27T19:19:30.621Z,13.00
2023-01-27T19:22:01.588Z,15.02
2023-01-27T19:24:33.153Z,10.68
2023-01-27T19:27:09.581Z,9.75
2023-01-27T19:29:43.063Z,7.78
2023-01-27T19:32:17.266Z,9.55
2023-01-27T19:34:48.198Z,12.13
2023-01-27T19:37:21.202Z,12.07
2023-01-27T19:39:52.113Z,12.10
2023-01-27T19:42:25.532Z,15.68
2023-01-27T19:44:57.652Z,10.15
2023-01-27T19:47:28.478Z,16.08
2023-01-27T19:49:59.177Z,11.07
2023-01-27T19:52:29.979Z,12.70
2023-01-27T19:55:00.777Z,11.32
2023-01-27T19:57:35.941Z,14.13
2023-01-27T20:00:08.300Z,13.35
2023-01-27T20:02:43.799Z,13.82
2023-01-27T20:05:14.978Z,12.52
2023-01-27T20:07:46.556Z,16.30
2023-01-27T20:10:22.918Z,14.32
2023-01-27T20:13:02.082Z,12.95
2023-01-27T20:15:37.388Z,14.70
2023-01-27T20:18:08.888Z,12.52
2023-01-27T20:20:39.706Z,13.98
2023-01-27T20:23:11.980Z,12.85
2023-01-27T20:25:42.883Z,14.07
2023-01-27T20:28:16.378Z,16.67
2023-01-27T20:30:47.398Z,15.80
2023-01-27T20:33:18.445Z,15.95
2023-01-27T20:35:49.410Z,13.73
2023-01-27T20:38:20.315Z,13.73
2023-01-27T20:40:51.076Z,14.80
2023-01-27T20:43:34.762Z,15.75
2023-01-27T20:46:07.263Z,17.13
2023-01-27T20:48:38.580Z,17.38
2023-01-27T20:51:11.345Z,16.27
2023-01-27T20:53:45.806Z,17.25
2023-01-27T20:56:18.846Z,15.30
2023-01-27T20:58:52.675Z,17.23
2023-01-27T21:01:25.198Z,17.35
2023-01-27T21:03:56.017Z,18.95
2023-01-27T21:06:26.892Z,17.80
2023-01-27T21:08:57.863Z,17.13
2023-01-27T21:11:28.682Z,18.02
2023-01-27T21:14:02.306Z,19.92
2023-01-27T21:16:35.288Z,21.50
2023-01-27T21:19:06.396Z,17.80
2023-01-27T21:21:37.488Z,16.88
2023-01-27T21:24:09.326Z,17.45
2023-01-27T21:26:40.637Z,16.48
2023-01-27T21:29:15.809Z,17.05
2023-01-27T21:31:46.618Z,19.20
2023-01-27T21:34:17.491Z,16.35
2023-01-27T21:36:48.293Z,20.42
2023-01-27T21:39:19.278Z,16.23
2023-01-27T21:42:02.285Z,19.23
2023-01-27T21:44:47.972Z,18.90
2023-01-27T21:47:20.816Z,19.08
2023-01-27T21:50:04.493Z,18.67
2023-01-27T21:52:39.347Z,17.80
2023-01-27T21:55:13.168Z,16.70
2023-01-27T21:57:45.986Z,19.27
2023-01-27T22:00:23.416Z,18.25
2023-01-27T22:02:58.264Z,16.10
2023-01-27T22:05:30.130Z,15.85
2023-01-27T22:08:01.899Z,16.85
2023-01-27T22:10:33.925Z,15.00
2023-01-27T22:13:08.478Z,17.25
2023-01-27T22:15:42.175Z,14.90
2023-01-27T22:18:13.672Z,13.63
2023-01-27T22:20:44.529Z,15.45
2023-01-27T22:23:15.304Z,14.43
2023-01-27T22:25:51.664Z,14.00
2023-01-27T22:28:23.248Z,16.42
2023-01-27T22:30:57.022Z,12.05
2023-01-27T22:33:27.963Z,14.98
2023-01-27T22:36:07.127Z,14.90
2023-01-27T22:38:41.673Z,12.43
2023-01-27T22:41:12.489Z,12.15
2023-01-27T22:43:43.471Z,14.68
2023-01-27T22:46:16.819Z,14.50
2023-01-27T22:48:50.077Z,18.02
2023-01-27T22:51:20.912Z,16.38
2023-01-27T22:53:51.662Z,11.77
2023-01-27T22:56:22.413Z,13.57
2023-01-27T22:58:53.170Z,15.65
2023-01-27T23:01:26.639Z,16.73
2023-01-27T23:03:57.411Z,13.40
2023-01-27T23:06:28.353Z,14.35
2023-01-27T23:08:59.069Z,14.70
2023-01-27T23:11:29.930Z,17.77
2023-01-27T23:14:00.803Z,16.25
2023-01-27T23:16:36.673Z,15.18
2023-01-27T23:19:07.713Z,16.95
2023-01-27T23:21:38.469Z,14.38
2023-01-27T23:24:09.502Z,15.32
2023-01-27T23:26:40.311Z,15.90
2023-01-27T23:29:24.142Z,16.17
2023-01-27T23:31:58.523Z,17.90
2023-01-27T23:34:29.559Z,19.88
2023-01-27T23:37:00.475Z,21.30
2023-01-27T23:39:31.301Z,20.15
2023-01-27T23:42:02.083Z,16.30
2023-01-27T23:44:32.979Z,15.55
2023-01-27T23:47:06.592Z,14.85
2023-01-27T23:49:37.360Z,16.15
2023-01-27T23:52:08.584Z,13.73
2023-01-27T23:54:39.381Z,14.18
2023-01-27T23:57:10.254Z,16.55
2023-01-27T23:59:41.495Z,12.77
